This is the latest recevied weather packets stored in our database for station/object K9CMP-13. If no packets are shown the sender has not sent any weather packets the latest 10 day(s).
| Time | Temp. | Humidity | Pressure | Rain* | Wind** | Luminosity | Snow |
|---|---|---|---|---|---|---|---|
| 1787594342 | 21.67° C | 52% | 1019.3 hPa | 0 mm | - | - | - |
| 1787593442 | 21.67° C | 55% | 1019.3 hPa | 0 mm | - | - | - |
| 1787592542 | 20.56° C | 56% | 1019.6 hPa | 0 mm | - | - | - |
| 1787591042 | 21.11° C | 59% | 1020 hPa | 0 mm | - | - | - |
| 1787590142 | 20.56° C | 60% | 1020 hPa | 0 mm | - | - | - |
| 1787589242 | 20° C | 61% | 1020 hPa | 0 mm | - | - | - |
| 1787587442 | 20° C | 59% | 1020.3 hPa | 0 mm | - | - | - |
| 1787585642 | 19.44° C | 62% | 1020 hPa | 0 mm | - | - | - |
| 1787585042 | 18.89° C | 59% | 1020 hPa | 0 mm | - | - | - |
| 1787584142 | 17.78° C | 62% | 1020 hPa | 0 mm | - | - | - |
| 1787583242 | 18.33° C | 66% | 1020 hPa | 0 mm | - | - | - |
| 1787582642 | 17.78° C | 69% | 1020 hPa | 0 mm | - | - | - |
| 1787580242 | 16.67° C | 74% | 1020 hPa | 0 mm | - | - | - |
| 1787579342 | 15° C | 77% | 1020 hPa | 0 mm | - | - | - |
| 1787578442 | 15° C | 78% | 1020 hPa | 0 mm | - | - | - |
| 1787577542 | 13.89° C | 83% | 1020 hPa | 0 mm | - | - | - |
| 1787575742 | 12.22° C | 93% | 1019.6 hPa | 0 mm | - | - | - |
| 1787573942 | 8.89° C | 98% | 1019.3 hPa | 0 mm | - | - | - |
| 1787573042 | 7.78° C | 100% | 1019 hPa | 0 mm | - | - | - |
| 1787572142 | 7.22° C | 100% | 1019 hPa | 0 mm | - | - | - |
| 1787570942 | 6.67° C | 100% | 1019 hPa | 0 mm | - | - | - |
| 1787567942 | 7.22° C | 99% | 1019 hPa | 0 mm | - | - | - |
| 1787565842 | 7.22° C | 99% | 1018.6 hPa | 0 mm | - | - | - |
| 1787563141 | 7.22° C | 99% | 1018.6 hPa | 0 mm | - | - | - |
| 1787562241 | 7.22° C | 98% | 1018.6 hPa | 0 mm | - | - | - |
* Rain latest hour (hover to see other rain measurements)
** Current wind speed in m/s (hover to see current wind gust speed)